sensor_id;sensor_type;location;lat;lon;timestamp;temperature;humidity
19692;DHT22;42748;50.016;19.890;2022-12-16T00:01:33;-1.60;99.90
19692;DHT22;42748;50.016;19.890;2022-12-16T00:04:01;-1.50;99.90
19692;DHT22;42748;50.016;19.890;2022-12-16T00:06:30;-1.60;99.90
19692;DHT22;42748;50.016;19.890;2022-12-16T00:08:58;-1.60;99.90
19692;DHT22;42748;50.016;19.890;2022-12-16T00:11:26;-1.50;99.90
19692;DHT22;42748;50.016;19.890;2022-12-16T00:13:56;-1.50;99.90
19692;DHT22;42748;50.016;19.890;2022-12-16T00:16:23;-1.50;99.90
19692;DHT22;42748;50.016;19.890;2022-12-16T00:18:50;-1.40;99.90
19692;DHT22;42748;50.016;19.890;2022-12-16T00:21:18;-1.40;99.90
19692;DHT22;42748;50.016;19.890;2022-12-16T00:23:45;-1.40;99.90
19692;DHT22;42748;50.016;19.890;2022-12-16T00:26:13;-1.40;99.90
19692;DHT22;42748;50.016;19.890;2022-12-16T00:28:40;-1.40;99.90
19692;DHT22;42748;50.016;19.890;2022-12-16T00:31:09;-1.40;99.90
19692;DHT22;42748;50.016;19.890;2022-12-16T00:33:37;-1.50;99.90
19692;DHT22;42748;50.016;19.890;2022-12-16T00:36:04;-1.50;99.90
19692;DHT22;42748;50.016;19.890;2022-12-16T00:38:31;-1.50;99.90
19692;DHT22;42748;50.016;19.890;2022-12-16T00:40:59;-1.50;99.90
19692;DHT22;42748;50.016;19.890;2022-12-16T00:43:26;-1.50;99.90
19692;DHT22;42748;50.016;19.890;2022-12-16T00:45:53;-1.50;99.90
19692;DHT22;42748;50.016;19.890;2022-12-16T00:48:22;-1.50;99.90
19692;DHT22;42748;50.016;19.890;2022-12-16T00:50:53;-1.50;99.90
19692;DHT22;42748;50.016;19.890;2022-12-16T00:53:22;-1.50;99.90
19692;DHT22;42748;50.016;19.890;2022-12-16T00:55:50;-1.50;99.90
19692;DHT22;42748;50.016;19.890;2022-12-16T00:58:17;-1.50;99.90
19692;DHT22;42748;50.016;19.890;2022-12-16T01:00:45;-1.50;99.90
19692;DHT22;42748;50.016;19.890;2022-12-16T01:03:12;-1.40;99.90
19692;DHT22;42748;50.016;19.890;2022-12-16T01:05:47;-1.50;99.90
19692;DHT22;42748;50.016;19.890;2022-12-16T01:08:14;-1.50;99.90
19692;DHT22;42748;50.016;19.890;2022-12-16T01:10:41;-1.50;99.90
19692;DHT22;42748;50.016;19.890;2022-12-16T01:13:08;-1.50;99.90
19692;DHT22;42748;50.016;19.890;2022-12-16T01:15:36;-1.50;99.90
19692;DHT22;42748;50.016;19.890;2022-12-16T01:18:04;-1.60;99.90
19692;DHT22;42748;50.016;19.890;2022-12-16T01:20:32;-1.60;99.90
19692;DHT22;42748;50.016;19.890;2022-12-16T01:23:00;-1.50;99.90
19692;DHT22;42748;50.016;19.890;2022-12-16T01:25:27;-1.50;99.90
19692;DHT22;42748;50.016;19.890;2022-12-16T01:27:54;-1.50;99.90
19692;DHT22;42748;50.016;19.890;2022-12-16T01:30:22;-1.50;99.90
19692;DHT22;42748;50.016;19.890;2022-12-16T01:32:49;-1.50;99.90
19692;DHT22;42748;50.016;19.890;2022-12-16T01:35:17;-1.50;99.90
19692;DHT22;42748;50.016;19.890;2022-12-16T01:38:05;-1.60;99.90
19692;DHT22;42748;50.016;19.890;2022-12-16T01:40:31;-1.50;99.90
19692;DHT22;42748;50.016;19.890;2022-12-16T01:42:59;-1.50;99.90
19692;DHT22;42748;50.016;19.890;2022-12-16T01:45:34;-1.50;99.90
19692;DHT22;42748;50.016;19.890;2022-12-16T01:51:32;-1.50;99.90
19692;DHT22;42748;50.016;19.890;2022-12-16T01:54:08;-1.50;99.90
19692;DHT22;42748;50.016;19.890;2022-12-16T01:56:40;-1.50;99.90
19692;DHT22;42748;50.016;19.890;2022-12-16T01:59:08;-1.50;99.90
19692;DHT22;42748;50.016;19.890;2022-12-16T02:01:37;-1.50;99.90
19692;DHT22;42748;50.016;19.890;2022-12-16T02:04:04;-1.50;99.90
19692;DHT22;42748;50.016;19.890;2022-12-16T02:06:32;-1.50;99.90
19692;DHT22;42748;50.016;19.890;2022-12-16T02:09:03;-1.60;99.90
19692;DHT22;42748;50.016;19.890;2022-12-16T02:11:45;-1.60;99.90
19692;DHT22;42748;50.016;19.890;2022-12-16T02:34:24;-1.50;99.90
19692;DHT22;42748;50.016;19.890;2022-12-16T02:37:17;-1.50;99.90
19692;DHT22;42748;50.016;19.890;2022-12-16T02:39:59;-1.50;99.90
19692;DHT22;42748;50.016;19.890;2022-12-16T02:42:33;-1.60;99.90
19692;DHT22;42748;50.016;19.890;2022-12-16T02:45:22;-1.60;99.90
19692;DHT22;42748;50.016;19.890;2022-12-16T02:47:51;-1.60;99.90
19692;DHT22;42748;50.016;19.890;2022-12-16T02:50:23;-1.60;99.90
19692;DHT22;42748;50.016;19.890;2022-12-16T02:52:53;-1.60;99.90
19692;DHT22;42748;50.016;19.890;2022-12-16T02:55:31;-1.70;99.90
19692;DHT22;42748;50.016;19.890;2022-12-16T03:01:41;-1.60;99.90
19692;DHT22;42748;50.016;19.890;2022-12-16T03:04:53;-1.60;99.90
19692;DHT22;42748;50.016;19.890;2022-12-16T03:07:14;-1.60;99.90
19692;DHT22;42748;50.016;19.890;2022-12-16T03:09:44;-1.50;99.90
19692;DHT22;42748;50.016;19.890;2022-12-16T03:12:15;-1.50;99.90
19692;DHT22;42748;50.016;19.890;2022-12-16T03:14:44;-1.50;99.90
19692;DHT22;42748;50.016;19.890;2022-12-16T03:17:13;-1.50;99.90
19692;DHT22;42748;50.016;19.890;2022-12-16T03:19:47;-1.50;99.90
19692;DHT22;42748;50.016;19.890;2022-12-16T03:22:20;-1.50;99.90
19692;DHT22;42748;50.016;19.890;2022-12-16T03:24:49;-1.50;99.90
19692;DHT22;42748;50.016;19.890;2022-12-16T03:27:23;-1.50;99.90
19692;DHT22;42748;50.016;19.890;2022-12-16T03:32:35;-1.50;99.90
19692;DHT22;42748;50.016;19.890;2022-12-16T03:35:18;-1.50;99.90
19692;DHT22;42748;50.016;19.890;2022-12-16T03:37:49;-1.50;99.90
19692;DHT22;42748;50.016;19.890;2022-12-16T03:40:18;-1.60;99.90
19692;DHT22;42748;50.016;19.890;2022-12-16T03:42:45;-1.50;99.90
19692;DHT22;42748;50.016;19.890;2022-12-16T03:45:16;-1.50;99.90
19692;DHT22;42748;50.016;19.890;2022-12-16T03:47:51;-1.50;99.90
19692;DHT22;42748;50.016;19.890;2022-12-16T03:50:22;-1.50;99.90
19692;DHT22;42748;50.016;19.890;2022-12-16T03:52:51;-1.50;99.90
19692;DHT22;42748;50.016;19.890;2022-12-16T03:55:17;-1.50;99.90
19692;DHT22;42748;50.016;19.890;2022-12-16T03:57:44;-1.50;99.90
19692;DHT22;42748;50.016;19.890;2022-12-16T04:00:12;-1.50;99.90
19692;DHT22;42748;50.016;19.890;2022-12-16T04:02:39;-1.50;99.90
19692;DHT22;42748;50.016;19.890;2022-12-16T04:05:07;-1.50;99.90
19692;DHT22;42748;50.016;19.890;2022-12-16T04:07:34;-1.50;99.90
19692;DHT22;42748;50.016;19.890;2022-12-16T04:10:01;-1.50;99.90
19692;DHT22;42748;50.016;19.890;2022-12-16T04:12:28;-1.40;99.90
19692;DHT22;42748;50.016;19.890;2022-12-16T04:15:13;-1.40;99.90
19692;DHT22;42748;50.016;19.890;2022-12-16T04:18:16;-1.40;99.90
19692;DHT22;42748;50.016;19.890;2022-12-16T04:21:03;-1.40;99.90
19692;DHT22;42748;50.016;19.890;2022-12-16T04:23:51;-1.50;99.90
19692;DHT22;42748;50.016;19.890;2022-12-16T04:26:38;-1.40;99.90
19692;DHT22;42748;50.016;19.890;2022-12-16T04:29:24;-1.40;99.90
19692;DHT22;42748;50.016;19.890;2022-12-16T04:31:51;-1.40;99.90
19692;DHT22;42748;50.016;19.890;2022-12-16T04:34:20;-1.40;99.90
19692;DHT22;42748;50.016;19.890;2022-12-16T04:36:57;-1.40;99.90
19692;DHT22;42748;50.016;19.890;2022-12-16T04:39:44;-1.40;99.90
19692;DHT22;42748;50.016;19.890;2022-12-16T04:42:30;-1.40;99.90
19692;DHT22;42748;50.016;19.890;2022-12-16T04:45:16;-1.40;99.90
19692;DHT22;42748;50.016;19.890;2022-12-16T04:48:02;-1.40;99.90
19692;DHT22;42748;50.016;19.890;2022-12-16T04:50:48;-1.30;99.90
19692;DHT22;42748;50.016;19.890;2022-12-16T04:53:34;-1.30;99.90
19692;DHT22;42748;50.016;19.890;2022-12-16T04:56:19;-1.30;99.90
19692;DHT22;42748;50.016;19.890;2022-12-16T04:59:05;-1.20;99.90
19692;DHT22;42748;50.016;19.890;2022-12-16T05:01:51;-1.20;99.90
19692;DHT22;42748;50.016;19.890;2022-12-16T05:04:37;-1.20;99.90
19692;DHT22;42748;50.016;19.890;2022-12-16T05:07:22;-1.20;99.90
19692;DHT22;42748;50.016;19.890;2022-12-16T05:10:08;-1.10;99.90
19692;DHT22;42748;50.016;19.890;2022-12-16T05:12:54;-1.10;99.90
19692;DHT22;42748;50.016;19.890;2022-12-16T05:15:40;-1.10;99.90
19692;DHT22;42748;50.016;19.890;2022-12-16T05:18:26;-1.00;99.90
19692;DHT22;42748;50.016;19.890;2022-12-16T05:21:11;-1.00;99.90
19692;DHT22;42748;50.016;19.890;2022-12-16T05:24:08;-1.00;99.90
19692;DHT22;42748;50.016;19.890;2022-12-16T05:26:53;-1.00;99.90
19692;DHT22;42748;50.016;19.890;2022-12-16T05:29:39;-1.00;99.90
19692;DHT22;42748;50.016;19.890;2022-12-16T05:32:35;-1.00;99.90
19692;DHT22;42748;50.016;19.890;2022-12-16T05:35:21;-1.00;99.90
19692;DHT22;42748;50.016;19.890;2022-12-16T05:38:07;-1.00;99.90
19692;DHT22;42748;50.016;19.890;2022-12-16T05:40:53;-1.00;99.90
19692;DHT22;42748;50.016;19.890;2022-12-16T05:43:39;-1.00;99.90
19692;DHT22;42748;50.016;19.890;2022-12-16T05:46:25;-0.90;99.90
19692;DHT22;42748;50.016;19.890;2022-12-16T05:49:11;-0.90;99.90
19692;DHT22;42748;50.016;19.890;2022-12-16T05:51:57;-0.90;99.90
19692;DHT22;42748;50.016;19.890;2022-12-16T05:54:43;-0.80;99.90
19692;DHT22;42748;50.016;19.890;2022-12-16T05:57:29;-0.80;99.90
19692;DHT22;42748;50.016;19.890;2022-12-16T06:00:15;-0.80;99.90
19692;DHT22;42748;50.016;19.890;2022-12-16T06:03:01;-0.70;99.90
19692;DHT22;42748;50.016;19.890;2022-12-16T06:05:47;-0.80;99.90
19692;DHT22;42748;50.016;19.890;2022-12-16T06:08:33;-0.70;99.90
19692;DHT22;42748;50.016;19.890;2022-12-16T06:11:19;-0.70;99.90
19692;DHT22;42748;50.016;19.890;2022-12-16T06:14:05;-0.70;99.90
19692;DHT22;42748;50.016;19.890;2022-12-16T06:16:50;-0.70;99.90
19692;DHT22;42748;50.016;19.890;2022-12-16T06:19:36;-0.70;99.90
19692;DHT22;42748;50.016;19.890;2022-12-16T06:22:22;-0.70;99.90
19692;DHT22;42748;50.016;19.890;2022-12-16T06:25:07;-0.70;99.90
19692;DHT22;42748;50.016;19.890;2022-12-16T06:27:53;-0.70;99.90
19692;DHT22;42748;50.016;19.890;2022-12-16T06:30:38;-0.60;99.90
19692;DHT22;42748;50.016;19.890;2022-12-16T06:33:24;-0.60;99.90
19692;DHT22;42748;50.016;19.890;2022-12-16T06:36:10;-0.50;99.90
19692;DHT22;42748;50.016;19.890;2022-12-16T06:38:55;-0.50;99.90
19692;DHT22;42748;50.016;19.890;2022-12-16T06:41:41;-0.50;99.90
19692;DHT22;42748;50.016;19.890;2022-12-16T06:44:27;-0.50;99.90
19692;DHT22;42748;50.016;19.890;2022-12-16T06:47:12;-0.50;99.90
19692;DHT22;42748;50.016;19.890;2022-12-16T06:49:58;-0.40;99.90
19692;DHT22;42748;50.016;19.890;2022-12-16T06:52:44;-0.40;99.90
19692;DHT22;42748;50.016;19.890;2022-12-16T06:55:30;-0.40;99.90
19692;DHT22;42748;50.016;19.890;2022-12-16T06:58:15;-0.40;99.90
19692;DHT22;42748;50.016;19.890;2022-12-16T07:01:01;-0.40;99.90
19692;DHT22;42748;50.016;19.890;2022-12-16T07:03:47;-0.40;99.90
19692;DHT22;42748;50.016;19.890;2022-12-16T07:06:33;-0.30;99.90
19692;DHT22;42748;50.016;19.890;2022-12-16T07:09:18;-0.30;99.90
19692;DHT22;42748;50.016;19.890;2022-12-16T07:12:04;-0.30;99.90
19692;DHT22;42748;50.016;19.890;2022-12-16T07:14:49;-0.20;99.90
19692;DHT22;42748;50.016;19.890;2022-12-16T07:17:35;-0.20;99.90
19692;DHT22;42748;50.016;19.890;2022-12-16T07:20:20;-0.20;99.90
19692;DHT22;42748;50.016;19.890;2022-12-16T07:23:06;-0.20;99.90
19692;DHT22;42748;50.016;19.890;2022-12-16T07:25:51;-0.20;99.90
19692;DHT22;42748;50.016;19.890;2022-12-16T07:28:37;-0.20;99.90
19692;DHT22;42748;50.016;19.890;2022-12-16T07:31:23;-0.10;99.90
19692;DHT22;42748;50.016;19.890;2022-12-16T07:34:08;-0.10;99.90
19692;DHT22;42748;50.016;19.890;2022-12-16T07:36:54;-0.10;99.90
19692;DHT22;42748;50.016;19.890;2022-12-16T07:39:40;-0.10;99.90
19692;DHT22;42748;50.016;19.890;2022-12-16T07:42:26;-0.10;99.90
19692;DHT22;42748;50.016;19.890;2022-12-16T07:45:11;0.00;99.90
19692;DHT22;42748;50.016;19.890;2022-12-16T07:47:57;0.00;99.90
19692;DHT22;42748;50.016;19.890;2022-12-16T07:50:43;0.00;99.90
19692;DHT22;42748;50.016;19.890;2022-12-16T07:53:28;0.00;99.90
19692;DHT22;42748;50.016;19.890;2022-12-16T07:56:14;0.00;99.90
19692;DHT22;42748;50.016;19.890;2022-12-16T07:59:00;-0.10;99.90
19692;DHT22;42748;50.016;19.890;2022-12-16T08:01:46;-0.10;99.90
19692;DHT22;42748;50.016;19.890;2022-12-16T08:04:32;0.00;99.90
19692;DHT22;42748;50.016;19.890;2022-12-16T08:07:17;0.00;99.90
19692;DHT22;42748;50.016;19.890;2022-12-16T08:10:03;0.00;99.90
19692;DHT22;42748;50.016;19.890;2022-12-16T08:12:49;0.00;99.90
19692;DHT22;42748;50.016;19.890;2022-12-16T08:15:35;0.00;99.90
19692;DHT22;42748;50.016;19.890;2022-12-16T08:18:21;0.00;99.90
19692;DHT22;42748;50.016;19.890;2022-12-16T08:21:07;0.00;99.90
19692;DHT22;42748;50.016;19.890;2022-12-16T08:23:53;0.00;99.90
19692;DHT22;42748;50.016;19.890;2022-12-16T08:26:39;0.00;99.90
19692;DHT22;42748;50.016;19.890;2022-12-16T08:29:24;0.00;99.90
19692;DHT22;42748;50.016;19.890;2022-12-16T08:32:12;0.00;99.90
19692;DHT22;42748;50.016;19.890;2022-12-16T08:34:58;0.00;99.90
19692;DHT22;42748;50.016;19.890;2022-12-16T08:37:44;0.00;99.90
19692;DHT22;42748;50.016;19.890;2022-12-16T08:40:37;0.00;99.90
19692;DHT22;42748;50.016;19.890;2022-12-16T08:43:23;0.00;99.90
19692;DHT22;42748;50.016;19.890;2022-12-16T08:46:09;0.10;99.90
19692;DHT22;42748;50.016;19.890;2022-12-16T08:48:55;0.00;99.90
19692;DHT22;42748;50.016;19.890;2022-12-16T08:51:41;0.00;99.90
19692;DHT22;42748;50.016;19.890;2022-12-16T08:54:38;0.00;99.90
19692;DHT22;42748;50.016;19.890;2022-12-16T08:57:24;0.00;99.90
19692;DHT22;42748;50.016;19.890;2022-12-16T09:00:10;0.00;99.90
19692;DHT22;42748;50.016;19.890;2022-12-16T09:02:57;0.10;99.90
19692;DHT22;42748;50.016;19.890;2022-12-16T09:05:44;0.10;99.90
19692;DHT22;42748;50.016;19.890;2022-12-16T09:08:30;0.10;99.90
19692;DHT22;42748;50.016;19.890;2022-12-16T09:11:16;0.10;99.90
19692;DHT22;42748;50.016;19.890;2022-12-16T09:14:02;0.10;99.90
19692;DHT22;42748;50.016;19.890;2022-12-16T09:16:47;0.10;99.90
19692;DHT22;42748;50.016;19.890;2022-12-16T09:19:34;0.20;99.90
19692;DHT22;42748;50.016;19.890;2022-12-16T09:22:21;0.20;99.90
19692;DHT22;42748;50.016;19.890;2022-12-16T09:25:07;0.30;99.90
19692;DHT22;42748;50.016;19.890;2022-12-16T09:27:52;0.30;99.90
19692;DHT22;42748;50.016;19.890;2022-12-16T09:30:38;0.40;99.90
19692;DHT22;42748;50.016;19.890;2022-12-16T09:33:24;0.40;99.90
19692;DHT22;42748;50.016;19.890;2022-12-16T09:36:10;0.30;99.90
19692;DHT22;42748;50.016;19.890;2022-12-16T09:38:55;0.30;99.90
19692;DHT22;42748;50.016;19.890;2022-12-16T09:42:00;0.40;99.90
19692;DHT22;42748;50.016;19.890;2022-12-16T09:48:29;0.40;99.90
19692;DHT22;42748;50.016;19.890;2022-12-16T09:51:19;0.50;99.90
19692;DHT22;42748;50.016;19.890;2022-12-16T09:54:10;0.50;99.90
19692;DHT22;42748;50.016;19.890;2022-12-16T09:56:59;0.50;99.90
19692;DHT22;42748;50.016;19.890;2022-12-16T09:59:53;0.50;99.90
19692;DHT22;42748;50.016;19.890;2022-12-16T10:02:39;0.50;99.90
19692;DHT22;42748;50.016;19.890;2022-12-16T10:05:56;0.50;99.90
19692;DHT22;42748;50.016;19.890;2022-12-16T10:08:58;0.60;99.90
19692;DHT22;42748;50.016;19.890;2022-12-16T10:12:02;0.60;99.90
19692;DHT22;42748;50.016;19.890;2022-12-16T10:15:01;0.70;99.90
19692;DHT22;42748;50.016;19.890;2022-12-16T10:17:46;0.70;99.90
19692;DHT22;42748;50.016;19.890;2022-12-16T10:20:43;0.70;99.90
19692;DHT22;42748;50.016;19.890;2022-12-16T10:23:49;0.80;99.90
19692;DHT22;42748;50.016;19.890;2022-12-16T10:26:52;0.80;99.90
19692;DHT22;42748;50.016;19.890;2022-12-16T10:29:43;0.70;99.90
19692;DHT22;42748;50.016;19.890;2022-12-16T10:32:35;0.80;99.90
19692;DHT22;42748;50.016;19.890;2022-12-16T10:38:37;0.70;99.90
19692;DHT22;42748;50.016;19.890;2022-12-16T10:41:35;0.80;99.90
19692;DHT22;42748;50.016;19.890;2022-12-16T10:47:24;0.90;99.90
19692;DHT22;42748;50.016;19.890;2022-12-16T10:50:13;0.90;99.90
19692;DHT22;42748;50.016;19.890;2022-12-16T10:53:01;0.80;99.90
19692;DHT22;42748;50.016;19.890;2022-12-16T10:58:53;0.80;99.90
19692;DHT22;42748;50.016;19.890;2022-12-16T11:01:40;0.80;99.90
19692;DHT22;42748;50.016;19.890;2022-12-16T11:04:30;0.80;99.90
19692;DHT22;42748;50.016;19.890;2022-12-16T11:13:20;0.80;99.90
19692;DHT22;42748;50.016;19.890;2022-12-16T11:16:12;0.80;99.90
19692;DHT22;42748;50.016;19.890;2022-12-16T11:18:59;0.80;99.90
19692;DHT22;42748;50.016;19.890;2022-12-16T11:21:45;0.80;99.90
19692;DHT22;42748;50.016;19.890;2022-12-16T11:24:31;0.80;99.90
19692;DHT22;42748;50.016;19.890;2022-12-16T11:30:21;0.80;99.90
19692;DHT22;42748;50.016;19.890;2022-12-16T11:33:19;0.80;99.90
19692;DHT22;42748;50.016;19.890;2022-12-16T11:36:25;0.80;99.90
19692;DHT22;42748;50.016;19.890;2022-12-16T11:39:20;0.80;99.90
19692;DHT22;42748;50.016;19.890;2022-12-16T11:42:09;0.80;99.90
19692;DHT22;42748;50.016;19.890;2022-12-16T11:44:58;0.80;99.90
19692;DHT22;42748;50.016;19.890;2022-12-16T11:47:59;0.80;99.90
19692;DHT22;42748;50.016;19.890;2022-12-16T11:50:55;0.90;99.90
19692;DHT22;42748;50.016;19.890;2022-12-16T11:56:41;0.80;99.90
19692;DHT22;42748;50.016;19.890;2022-12-16T11:59:54;0.90;99.90
19692;DHT22;42748;50.016;19.890;2022-12-16T12:02:57;0.90;99.90
19692;DHT22;42748;50.016;19.890;2022-12-16T12:09:10;0.90;99.90
19692;DHT22;42748;50.016;19.890;2022-12-16T12:21:25;1.00;99.90
19692;DHT22;42748;50.016;19.890;2022-12-16T12:30:05;1.00;99.90
19692;DHT22;42748;50.016;19.890;2022-12-16T12:39:31;1.00;99.90
19692;DHT22;42748;50.016;19.890;2022-12-16T12:52:16;1.00;99.90
19692;DHT22;42748;50.016;19.890;2022-12-16T12:55:13;0.90;99.90
19692;DHT22;42748;50.016;19.890;2022-12-16T12:58:12;0.90;99.90
19692;DHT22;42748;50.016;19.890;2022-12-16T13:01:01;1.00;99.90
19692;DHT22;42748;50.016;19.890;2022-12-16T13:04:09;0.90;99.90
19692;DHT22;42748;50.016;19.890;2022-12-16T13:06:58;1.00;99.90
19692;DHT22;42748;50.016;19.890;2022-12-16T13:09:45;0.90;99.90
19692;DHT22;42748;50.016;19.890;2022-12-16T13:12:32;0.90;99.90
19692;DHT22;42748;50.016;19.890;2022-12-16T13:20:52;0.90;99.90
19692;DHT22;42748;50.016;19.890;2022-12-16T13:23:41;0.90;99.90
19692;DHT22;42748;50.016;19.890;2022-12-16T13:26:33;0.90;99.90
19692;DHT22;42748;50.016;19.890;2022-12-16T13:29:39;0.80;99.90
19692;DHT22;42748;50.016;19.890;2022-12-16T13:32:24;0.80;99.90
19692;DHT22;42748;50.016;19.890;2022-12-16T13:37:58;0.70;99.90
19692;DHT22;42748;50.016;19.890;2022-12-16T13:41:04;0.70;99.90
19692;DHT22;42748;50.016;19.890;2022-12-16T13:43:55;0.70;99.90
19692;DHT22;42748;50.016;19.890;2022-12-16T13:46:52;0.70;99.90
19692;DHT22;42748;50.016;19.890;2022-12-16T13:49:44;0.70;99.90
19692;DHT22;42748;50.016;19.890;2022-12-16T13:55:37;0.60;99.90
19692;DHT22;42748;50.016;19.890;2022-12-16T13:58:37;0.60;99.90
19692;DHT22;42748;50.016;19.890;2022-12-16T14:01:52;0.60;99.90
19692;DHT22;42748;50.016;19.890;2022-12-16T14:04:43;0.60;99.90
19692;DHT22;42748;50.016;19.890;2022-12-16T14:07:32;0.60;99.90
19692;DHT22;42748;50.016;19.890;2022-12-16T14:13:32;0.60;99.90
19692;DHT22;42748;50.016;19.890;2022-12-16T14:16:24;0.50;99.90
19692;DHT22;42748;50.016;19.890;2022-12-16T14:19:52;0.50;99.90
19692;DHT22;42748;50.016;19.890;2022-12-16T14:26:25;0.40;99.90
19692;DHT22;42748;50.016;19.890;2022-12-16T14:29:29;0.40;99.90
19692;DHT22;42748;50.016;19.890;2022-12-16T14:32:29;0.40;99.90
19692;DHT22;42748;50.016;19.890;2022-12-16T14:35:26;0.30;99.90
19692;DHT22;42748;50.016;19.890;2022-12-16T14:38:34;0.40;99.90
19692;DHT22;42748;50.016;19.890;2022-12-16T14:41:22;0.40;99.90
19692;DHT22;42748;50.016;19.890;2022-12-16T14:44:23;0.30;99.90
19692;DHT22;42748;50.016;19.890;2022-12-16T14:47:17;0.30;99.90
19692;DHT22;42748;50.016;19.890;2022-12-16T14:50:26;0.30;99.90
19692;DHT22;42748;50.016;19.890;2022-12-16T14:53:30;0.30;99.90
19692;DHT22;42748;50.016;19.890;2022-12-16T14:56:20;0.30;99.90
19692;DHT22;42748;50.016;19.890;2022-12-16T14:59:17;0.30;99.90
19692;DHT22;42748;50.016;19.890;2022-12-16T15:02:22;0.30;99.90
19692;DHT22;42748;50.016;19.890;2022-12-16T15:05:10;0.30;99.90
19692;DHT22;42748;50.016;19.890;2022-12-16T15:07:56;0.30;99.90
19692;DHT22;42748;50.016;19.890;2022-12-16T15:10:42;0.30;99.90
19692;DHT22;42748;50.016;19.890;2022-12-16T15:13:29;0.30;99.90
19692;DHT22;42748;50.016;19.890;2022-12-16T15:16:19;0.30;99.90
19692;DHT22;42748;50.016;19.890;2022-12-16T15:19:20;0.30;99.90
19692;DHT22;42748;50.016;19.890;2022-12-16T15:22:13;0.30;99.90
19692;DHT22;42748;50.016;19.890;2022-12-16T15:25:24;0.30;99.90
19692;DHT22;42748;50.016;19.890;2022-12-16T15:28:45;0.40;99.90
19692;DHT22;42748;50.016;19.890;2022-12-16T15:31:35;0.40;99.90
19692;DHT22;42748;50.016;19.890;2022-12-16T15:34:45;0.40;99.90
19692;DHT22;42748;50.016;19.890;2022-12-16T15:37:37;0.30;99.90
19692;DHT22;42748;50.016;19.890;2022-12-16T15:40:31;0.40;99.90
19692;DHT22;42748;50.016;19.890;2022-12-16T15:43:38;0.40;99.90
19692;DHT22;42748;50.016;19.890;2022-12-16T15:46:28;0.40;99.90
19692;DHT22;42748;50.016;19.890;2022-12-16T15:49:21;0.40;99.90
19692;DHT22;42748;50.016;19.890;2022-12-16T16:01:16;0.40;99.90
19692;DHT22;42748;50.016;19.890;2022-12-16T16:04:24;0.30;99.90
19692;DHT22;42748;50.016;19.890;2022-12-16T16:07:21;0.30;99.90
19692;DHT22;42748;50.016;19.890;2022-12-16T16:10:22;0.30;99.90
19692;DHT22;42748;50.016;19.890;2022-12-16T16:13:09;0.30;99.90
19692;DHT22;42748;50.016;19.890;2022-12-16T16:15:54;0.20;99.90
19692;DHT22;42748;50.016;19.890;2022-12-16T16:18:41;0.20;99.90
19692;DHT22;42748;50.016;19.890;2022-12-16T16:21:28;0.20;99.90
19692;DHT22;42748;50.016;19.890;2022-12-16T16:24:14;0.20;99.90
19692;DHT22;42748;50.016;19.890;2022-12-16T16:27:01;0.20;99.90
19692;DHT22;42748;50.016;19.890;2022-12-16T16:29:47;0.20;99.90
19692;DHT22;42748;50.016;19.890;2022-12-16T16:32:33;0.20;99.90
19692;DHT22;42748;50.016;19.890;2022-12-16T16:35:18;0.10;99.90
19692;DHT22;42748;50.016;19.890;2022-12-16T16:38:04;0.10;99.90
19692;DHT22;42748;50.016;19.890;2022-12-16T16:40:50;0.20;99.90
19692;DHT22;42748;50.016;19.890;2022-12-16T16:43:35;0.10;99.90
19692;DHT22;42748;50.016;19.890;2022-12-16T16:52:12;0.10;99.90
19692;DHT22;42748;50.016;19.890;2022-12-16T16:54:58;0.10;99.90
19692;DHT22;42748;50.016;19.890;2022-12-16T16:57:44;0.00;99.90
19692;DHT22;42748;50.016;19.890;2022-12-16T17:00:30;0.10;99.90
19692;DHT22;42748;50.016;19.890;2022-12-16T17:03:16;0.10;99.90
19692;DHT22;42748;50.016;19.890;2022-12-16T17:06:03;0.00;99.90
19692;DHT22;42748;50.016;19.890;2022-12-16T17:08:48;0.00;99.90
19692;DHT22;42748;50.016;19.890;2022-12-16T17:11:36;0.00;99.90
19692;DHT22;42748;50.016;19.890;2022-12-16T17:14:29;0.00;99.90
19692;DHT22;42748;50.016;19.890;2022-12-16T17:17:15;0.00;99.90
19692;DHT22;42748;50.016;19.890;2022-12-16T17:20:01;0.00;99.90
19692;DHT22;42748;50.016;19.890;2022-12-16T17:22:46;-0.10;99.90
19692;DHT22;42748;50.016;19.890;2022-12-16T17:25:32;-0.10;99.90
19692;DHT22;42748;50.016;19.890;2022-12-16T17:28:18;-0.10;99.90
19692;DHT22;42748;50.016;19.890;2022-12-16T17:31:03;-0.20;99.90
19692;DHT22;42748;50.016;19.890;2022-12-16T17:33:49;-0.20;99.90
19692;DHT22;42748;50.016;19.890;2022-12-16T17:36:35;-0.20;99.90
19692;DHT22;42748;50.016;19.890;2022-12-16T17:39:21;-0.30;99.90
19692;DHT22;42748;50.016;19.890;2022-12-16T17:42:06;-0.30;99.90
19692;DHT22;42748;50.016;19.890;2022-12-16T17:44:52;-0.20;99.90
19692;DHT22;42748;50.016;19.890;2022-12-16T17:47:38;-0.20;99.90
19692;DHT22;42748;50.016;19.890;2022-12-16T17:50:23;-0.20;99.90
19692;DHT22;42748;50.016;19.890;2022-12-16T17:53:09;-0.20;99.90
19692;DHT22;42748;50.016;19.890;2022-12-16T17:55:55;-0.20;99.90
19692;DHT22;42748;50.016;19.890;2022-12-16T17:58:41;-0.20;99.90
19692;DHT22;42748;50.016;19.890;2022-12-16T18:01:26;-0.20;99.90
19692;DHT22;42748;50.016;19.890;2022-12-16T18:04:12;-0.20;99.90
19692;DHT22;42748;50.016;19.890;2022-12-16T18:06:57;-0.20;99.90
19692;DHT22;42748;50.016;19.890;2022-12-16T18:09:43;-0.20;99.90
19692;DHT22;42748;50.016;19.890;2022-12-16T18:12:31;-0.20;99.90
19692;DHT22;42748;50.016;19.890;2022-12-16T18:15:17;-0.20;99.90
19692;DHT22;42748;50.016;19.890;2022-12-16T18:18:02;-0.30;99.90
19692;DHT22;42748;50.016;19.890;2022-12-16T18:20:48;-0.30;99.90
19692;DHT22;42748;50.016;19.890;2022-12-16T18:23:34;-0.40;99.90
19692;DHT22;42748;50.016;19.890;2022-12-16T18:26:19;-0.40;99.90
19692;DHT22;42748;50.016;19.890;2022-12-16T18:29:05;-0.40;99.90
19692;DHT22;42748;50.016;19.890;2022-12-16T18:32:11;-0.40;99.90
19692;DHT22;42748;50.016;19.890;2022-12-16T18:35:01;-0.50;99.90
19692;DHT22;42748;50.016;19.890;2022-12-16T18:37:48;-0.40;99.90
19692;DHT22;42748;50.016;19.890;2022-12-16T18:40:39;-0.40;99.90
19692;DHT22;42748;50.016;19.890;2022-12-16T18:43:24;-0.50;99.90
19692;DHT22;42748;50.016;19.890;2022-12-16T18:46:09;-0.50;99.90
19692;DHT22;42748;50.016;19.890;2022-12-16T18:48:55;-0.50;99.90
19692;DHT22;42748;50.016;19.890;2022-12-16T18:51:41;-0.40;99.90
19692;DHT22;42748;50.016;19.890;2022-12-16T18:54:27;-0.50;99.90
19692;DHT22;42748;50.016;19.890;2022-12-16T18:57:13;-0.50;99.90
19692;DHT22;42748;50.016;19.890;2022-12-16T19:00:05;-0.50;99.90
19692;DHT22;42748;50.016;19.890;2022-12-16T19:02:51;-0.50;99.90
19692;DHT22;42748;50.016;19.890;2022-12-16T19:05:37;-0.50;99.90
19692;DHT22;42748;50.016;19.890;2022-12-16T19:08:22;-0.40;99.90
19692;DHT22;42748;50.016;19.890;2022-12-16T19:11:08;-0.50;99.90
19692;DHT22;42748;50.016;19.890;2022-12-16T19:13:54;-0.50;99.90
19692;DHT22;42748;50.016;19.890;2022-12-16T19:16:39;-0.40;99.90